createdAt,value
2018-02-18T01:11:13.672Z,-2.90
2018-02-18T01:12:18.573Z,-2.85
2018-02-18T01:13:23.391Z,-2.82
2018-02-18T01:14:28.285Z,-2.82
2018-02-18T01:15:33.120Z,-2.78
2018-02-18T01:16:37.795Z,-2.77
2018-02-18T01:17:42.898Z,-2.78
2018-02-18T01:18:47.691Z,-2.75
2018-02-18T01:19:53.112Z,-2.73
2018-02-18T01:20:58.824Z,-2.69
2018-02-18T01:22:03.969Z,-2.65
2018-02-18T01:23:09.215Z,-2.67
2018-02-18T01:24:14.731Z,-2.69
2018-02-18T01:25:19.980Z,-2.71
2018-02-18T01:26:25.411Z,-2.80
2018-02-18T01:27:30.784Z,-2.78
2018-02-18T01:28:36.475Z,-2.84
2018-02-18T01:29:42.100Z,-2.95
2018-02-18T01:30:48.004Z,-3.01
2018-02-18T01:31:52.941Z,-3.12
2018-02-18T01:32:57.978Z,-3.07
2018-02-18T01:34:03.888Z,-3.16
2018-02-18T01:35:09.239Z,-3.24
2018-02-18T01:36:14.741Z,-3.37
2018-02-18T01:37:20.166Z,-3.28
2018-02-18T01:38:25.396Z,-3.19
2018-02-18T01:39:30.891Z,-3.12
2018-02-18T01:40:36.227Z,-3.10
2018-02-18T01:41:41.522Z,-3.12
2018-02-18T01:42:46.788Z,-3.11
2018-02-18T01:43:52.549Z,-3.11
2018-02-18T01:44:58.016Z,-3.12
2018-02-18T01:46:04.613Z,-3.15
2018-02-18T01:47:10.541Z,-3.31
2018-02-18T01:48:15.884Z,-3.40
2018-02-18T01:49:21.508Z,-3.37
2018-02-18T01:50:30.811Z,-3.30
2018-02-18T01:51:35.534Z,-3.24
2018-02-18T01:52:40.223Z,-3.17
2018-02-18T01:53:44.939Z,-3.13
2018-02-18T01:54:49.577Z,-3.13
2018-02-18T01:55:54.902Z,-3.17
2018-02-18T01:57:00.480Z,-3.15
2018-02-18T01:58:06.185Z,-3.28
2018-02-18T01:59:11.921Z,-3.22
2018-02-18T02:00:17.036Z,-3.28
2018-02-18T02:01:22.742Z,-3.23
2018-02-18T02:02:28.355Z,-3.21
2018-02-18T02:03:33.678Z,-3.18
2018-02-18T02:04:38.840Z,-3.21
2018-02-18T02:05:44.748Z,-3.22
2018-02-18T02:06:51.243Z,-3.30
2018-02-18T02:07:55.949Z,-3.52
2018-02-18T02:09:01.009Z,-3.49
2018-02-18T02:10:06.473Z,-3.43
2018-02-18T02:11:11.683Z,-3.47
2018-02-18T02:12:17.440Z,-3.40
2018-02-18T02:13:23.177Z,-3.44
2018-02-18T02:14:28.985Z,-3.35
2018-02-18T02:15:34.663Z,-3.28
2018-02-18T02:16:40.083Z,-3.25
2018-02-18T02:17:44.887Z,-3.30
2018-02-18T02:18:49.699Z,-3.30
2018-02-18T02:19:54.579Z,-3.33
2018-02-18T02:21:00.551Z,-3.35
2018-02-18T02:22:07.261Z,-3.40
2018-02-18T02:23:12.322Z,-3.40
2018-02-18T02:24:17.119Z,-3.58
2018-02-18T02:25:22.093Z,-3.67
2018-02-18T02:26:28.019Z,-3.77
2018-02-18T02:27:33.187Z,-3.80
2018-02-18T02:28:38.285Z,-3.84
2018-02-18T02:29:46.472Z,-3.93
2018-02-18T02:30:51.288Z,-3.93
2018-02-18T02:31:56.291Z,-3.89
2018-02-18T02:33:01.276Z,-3.91
2018-02-18T02:34:06.668Z,-3.97
2018-02-18T02:35:12.125Z,-4.04
2018-02-18T02:36:18.614Z,-4.15
2018-02-18T02:37:23.516Z,-4.14
2018-02-18T02:38:28.784Z,-4.15
2018-02-18T02:39:35.089Z,-4.19
2018-02-18T02:40:40.821Z,-4.22
2018-02-18T02:41:45.663Z,-4.31
2018-02-18T02:42:50.926Z,-4.43
2018-02-18T02:43:56.268Z,-4.46
2018-02-18T02:45:01.633Z,-4.50
2018-02-18T02:46:07.031Z,-4.48
2018-02-18T02:47:13.291Z,-4.51
2018-02-18T02:48:19.091Z,-4.54
2018-02-18T02:49:24.825Z,-4.57
2018-02-18T02:50:29.775Z,-4.66
2018-02-18T02:51:34.994Z,-4.67
2018-02-18T02:52:40.561Z,-4.74
2018-02-18T02:53:46.334Z,-4.74
2018-02-18T02:54:51.836Z,-4.78
2018-02-18T02:55:57.069Z,-4.86
2018-02-18T02:57:03.100Z,-4.82
2018-02-18T02:58:08.359Z,-4.85
2018-02-18T02:59:14.273Z,-4.87
2018-02-18T03:00:19.482Z,-4.88
2018-02-18T03:01:25.096Z,-4.86
2018-02-18T03:02:30.945Z,-4.87
2018-02-18T03:03:36.863Z,-4.86
2018-02-18T03:04:43.469Z,-4.73
2018-02-18T03:05:48.663Z,-4.66
2018-02-18T03:06:53.698Z,-4.64
2018-02-18T03:07:58.927Z,-4.57
2018-02-18T03:09:04.725Z,-4.58
2018-02-18T03:10:09.741Z,-4.48
2018-02-18T03:11:15.580Z,-4.41
2018-02-18T03:12:21.014Z,-4.38
2018-02-18T03:13:26.548Z,-4.41
2018-02-18T03:14:32.391Z,-4.46
2018-02-18T03:15:37.073Z,-4.60
2018-02-18T03:16:42.326Z,-4.57
2018-02-18T03:17:47.159Z,-4.56
2018-02-18T03:18:52.540Z,-4.53
2018-02-18T03:19:57.766Z,-4.45
2018-02-18T03:21:03.596Z,-4.45
2018-02-18T03:22:08.628Z,-4.45
2018-02-18T03:23:15.115Z,-4.42
2018-02-18T03:24:20.039Z,-4.51
2018-02-18T03:25:25.208Z,-4.54
2018-02-18T03:26:31.114Z,-4.48
2018-02-18T03:27:36.480Z,-4.44
2018-02-18T03:28:43.173Z,-4.47
2018-02-18T03:29:48.595Z,-4.52
2018-02-18T03:30:53.653Z,-4.54
2018-02-18T03:31:58.524Z,-4.63
2018-02-18T03:33:03.578Z,-4.61
2018-02-18T03:34:09.956Z,-4.62
2018-02-18T03:35:15.509Z,-4.61
2018-02-18T03:36:20.855Z,-4.57
2018-02-18T03:37:26.081Z,-4.60
2018-02-18T03:38:32.885Z,-4.59
2018-02-18T03:39:38.489Z,-4.49
2018-02-18T03:40:43.673Z,-4.52
2018-02-18T03:41:48.985Z,-4.64
2018-02-18T03:42:54.296Z,-4.56
2018-02-18T03:43:59.995Z,-4.51
2018-02-18T03:45:05.768Z,-4.41
2018-02-18T03:46:10.976Z,-4.46
2018-02-18T03:47:16.502Z,-4.51
2018-02-18T03:48:22.357Z,-4.57
2018-02-18T03:49:27.718Z,-4.67
2018-02-18T03:50:32.880Z,-4.62
2018-02-18T03:51:37.764Z,-4.64
2018-02-18T03:52:43.275Z,-4.66
2018-02-18T03:53:49.041Z,-4.75
2018-02-18T03:54:54.672Z,-4.79
2018-02-18T03:56:00.661Z,-4.77
2018-02-18T03:57:05.641Z,-4.77
2018-02-18T03:58:11.049Z,-4.74
2018-02-18T03:59:16.169Z,-4.72
2018-02-18T04:00:22.249Z,-4.80
2018-02-18T04:01:27.345Z,-4.84
2018-02-18T04:02:33.617Z,-4.74
2018-02-18T04:03:39.036Z,-4.80
2018-02-18T04:04:44.120Z,-4.84
2018-02-18T04:05:50.543Z,-4.81
2018-02-18T04:06:56.345Z,-4.79
2018-02-18T04:08:02.327Z,-4.83
2018-02-18T04:09:07.411Z,-4.83
2018-02-18T04:10:12.308Z,-4.85
2018-02-18T04:11:18.060Z,-4.83
2018-02-18T04:12:23.858Z,-4.91
2018-02-18T04:13:28.924Z,-4.94
2018-02-18T04:14:33.683Z,-5.00
2018-02-18T04:15:38.554Z,-5.05
2018-02-18T04:16:43.532Z,-5.10
2018-02-18T04:17:50.035Z,-5.09
2018-02-18T04:18:55.303Z,-5.06
2018-02-18T04:20:00.686Z,-4.98
2018-02-18T04:21:06.284Z,-4.82
2018-02-18T04:22:11.656Z,-4.70
2018-02-18T04:23:17.023Z,-4.64
2018-02-18T04:24:22.141Z,-4.62
2018-02-18T04:25:27.218Z,-4.56
2018-02-18T04:26:32.524Z,-4.45
2018-02-18T04:27:38.507Z,-4.42
2018-02-18T04:28:44.386Z,-4.38
2018-02-18T04:29:49.476Z,-4.38
2018-02-18T04:30:55.309Z,-4.43
2018-02-18T04:32:00.822Z,-4.49
2018-02-18T04:33:05.899Z,-4.50
2018-02-18T04:34:10.484Z,-4.53
2018-02-18T04:35:16.166Z,-4.67
2018-02-18T04:36:21.185Z,-4.66
2018-02-18T04:37:26.735Z,-4.63
2018-02-18T04:38:31.935Z,-4.70
2018-02-18T04:39:37.553Z,-4.65
2018-02-18T04:40:42.712Z,-4.58
2018-02-18T04:41:47.903Z,-4.58
2018-02-18T04:42:53.527Z,-4.56
2018-02-18T04:43:59.351Z,-4.51
2018-02-18T04:45:05.388Z,-4.49
2018-02-18T04:46:11.269Z,-4.50
2018-02-18T04:47:16.753Z,-4.47
2018-02-18T04:48:21.628Z,-4.47
2018-02-18T04:49:26.403Z,-4.48
2018-02-18T04:50:32.875Z,-4.58
2018-02-18T04:51:39.145Z,-4.57
2018-02-18T04:52:44.594Z,-4.64
2018-02-18T04:53:49.936Z,-4.67
2018-02-18T04:54:54.889Z,-4.69
2018-02-18T04:56:00.361Z,-4.72
2018-02-18T04:57:05.869Z,-4.65
2018-02-18T04:58:11.769Z,-4.63
2018-02-18T04:59:17.705Z,-4.71
2018-02-18T05:00:23.484Z,-4.74
2018-02-18T05:01:29.177Z,-4.70
2018-02-18T05:02:34.918Z,-4.70
2018-02-18T05:03:40.793Z,-4.79
2018-02-18T05:04:45.994Z,-4.82
2018-02-18T05:05:52.321Z,-4.82
2018-02-18T05:06:58.186Z,-4.76
2018-02-18T05:08:03.719Z,-4.81
2018-02-18T05:09:09.672Z,-4.78
2018-02-18T05:10:14.686Z,-4.82
2018-02-18T05:11:19.972Z,-4.85
2018-02-18T05:12:25.795Z,-4.84
2018-02-18T05:13:31.891Z,-4.86
2018-02-18T05:14:37.391Z,-4.93
2018-02-18T05:15:42.565Z,-4.94
2018-02-18T05:16:47.868Z,-4.90
2018-02-18T05:17:54.157Z,-4.86
2018-02-18T05:18:59.281Z,-4.82
2018-02-18T05:20:04.218Z,-4.77
2018-02-18T05:21:09.297Z,-4.68
2018-02-18T05:22:15.167Z,-4.63
2018-02-18T05:23:20.432Z,-4.60
2018-02-18T05:24:25.751Z,-4.68
2018-02-18T05:25:31.082Z,-4.68
2018-02-18T05:26:36.433Z,-4.63
2018-02-18T05:27:41.603Z,-4.57
2018-02-18T05:28:47.080Z,-4.51
2018-02-18T05:29:52.128Z,-4.51
2018-02-18T05:30:57.430Z,-4.57
2018-02-18T05:32:03.851Z,-4.58
2018-02-18T05:33:08.755Z,-4.58
2018-02-18T05:34:13.705Z,-4.73
2018-02-18T05:35:19.728Z,-4.73
2018-02-18T05:36:25.444Z,-4.67
2018-02-18T05:37:31.392Z,-4.66
2018-02-18T05:38:36.866Z,-4.68
2018-02-18T05:39:42.072Z,-4.77
2018-02-18T05:40:47.740Z,-4.69
2018-02-18T05:41:53.636Z,-4.66
2018-02-18T05:42:58.997Z,-4.81
2018-02-18T05:44:04.173Z,-4.85
2018-02-18T05:45:09.569Z,-4.91
2018-02-18T05:46:15.734Z,-5.00
2018-02-18T05:47:20.868Z,-4.88
2018-02-18T05:48:26.156Z,-4.86
2018-02-18T05:49:32.171Z,-4.77
2018-02-18T05:50:38.315Z,-4.84
2018-02-18T05:51:44.506Z,-4.83
2018-02-18T05:52:49.386Z,-4.88
2018-02-18T05:53:54.344Z,-4.93
2018-02-18T05:54:59.513Z,-4.86
2018-02-18T05:56:04.603Z,-4.82
2018-02-18T05:57:10.553Z,-4.81
2018-02-18T05:58:15.905Z,-4.77
2018-02-18T05:59:24.530Z,-4.87
2018-02-18T06:00:29.233Z,-4.88
2018-02-18T06:01:34.000Z,-4.89
2018-02-18T06:02:38.990Z,-5.01
2018-02-18T06:03:44.445Z,-4.96
2018-02-18T06:04:49.988Z,-4.88
2018-02-18T06:05:55.949Z,-4.84
2018-02-18T06:07:01.366Z,-4.86
2018-02-18T06:08:06.764Z,-4.90
2018-02-18T06:09:12.455Z,-4.88
2018-02-18T06:10:17.714Z,-4.85
2018-02-18T06:11:23.673Z,-4.83
2018-02-18T06:12:29.796Z,-4.90
2018-02-18T06:13:34.857Z,-4.88
2018-02-18T06:14:40.488Z,-4.82
2018-02-18T06:15:45.416Z,-4.83
2018-02-18T06:16:51.013Z,-4.82
2018-02-18T06:17:56.110Z,-4.86
2018-02-18T06:19:02.048Z,-4.93
2018-02-18T06:20:06.809Z,-4.97
2018-02-18T06:21:12.244Z,-5.13
2018-02-18T06:22:18.337Z,-5.11
2018-02-18T06:23:23.938Z,-5.02
2018-02-18T06:24:30.013Z,-4.95
2018-02-18T06:25:35.015Z,-4.89
2018-02-18T06:26:41.177Z,-4.86
2018-02-18T06:27:46.851Z,-4.85
2018-02-18T06:28:53.043Z,-4.83
2018-02-18T06:30:00.163Z,-4.76
2018-02-18T06:31:04.813Z,-4.74
2018-02-18T06:32:09.380Z,-4.71
2018-02-18T06:33:13.989Z,-4.69
2018-02-18T06:34:18.966Z,-4.67
2018-02-18T06:35:24.384Z,-4.69
2018-02-18T06:36:29.773Z,-4.69
2018-02-18T06:37:35.754Z,-4.70
2018-02-18T06:38:40.875Z,-4.76
2018-02-18T06:39:45.845Z,-4.79
2018-02-18T06:40:50.865Z,-4.75
2018-02-18T06:41:56.464Z,-4.83
2018-02-18T06:43:01.735Z,-4.76
2018-02-18T06:44:07.040Z,-4.84
2018-02-18T06:45:12.602Z,-4.86
2018-02-18T06:46:18.356Z,-4.82
2018-02-18T06:47:24.332Z,-4.94
2018-02-18T06:48:29.792Z,-4.96
2018-02-18T06:49:35.153Z,-4.97
2018-02-18T06:50:41.402Z,-4.91
2018-02-18T06:51:46.965Z,-4.90
2018-02-18T06:52:52.631Z,-5.05
2018-02-18T06:53:57.836Z,-5.20
2018-02-18T06:55:02.839Z,-5.20
2018-02-18T06:56:07.883Z,-5.16
2018-02-18T06:57:12.924Z,-5.13
2018-02-18T06:58:18.558Z,-5.01
2018-02-18T06:59:23.632Z,-4.93
2018-02-18T07:00:29.037Z,-4.85
2018-02-18T07:01:35.144Z,-4.78
2018-02-18T07:02:40.056Z,-4.67
2018-02-18T07:03:45.586Z,-4.58
2018-02-18T07:04:51.016Z,-4.39
2018-02-18T07:05:56.633Z,-4.33
2018-02-18T07:07:02.781Z,-4.39
2018-02-18T07:08:07.989Z,-4.49
2018-02-18T07:09:13.700Z,-4.43
2018-02-18T07:10:19.482Z,-4.32
2018-02-18T07:11:24.502Z,-4.15
2018-02-18T07:12:30.864Z,-4.09
2018-02-18T07:13:36.752Z,-3.90
2018-02-18T07:14:42.874Z,-3.74
2018-02-18T07:15:47.974Z,-3.49
2018-02-18T07:16:53.226Z,-3.33
2018-02-18T07:17:59.536Z,-3.19
2018-02-18T07:19:04.557Z,-3.19
2018-02-18T07:20:11.360Z,-3.16
2018-02-18T07:21:17.194Z,-3.03
2018-02-18T07:22:22.168Z,-2.90
2018-02-18T07:23:28.071Z,-2.90
2018-02-18T07:24:32.934Z,-2.82
2018-02-18T07:25:38.532Z,-2.63
2018-02-18T07:26:44.202Z,-2.66
2018-02-18T07:27:49.258Z,-2.49
2018-02-18T07:28:54.397Z,-2.44
2018-02-18T07:30:00.961Z,-2.36
2018-02-18T07:31:06.413Z,-2.28
2018-02-18T07:32:12.526Z,-2.38
2018-02-18T07:33:18.150Z,-2.38
2018-02-18T07:34:23.374Z,-2.13
2018-02-18T07:35:28.581Z,-2.03
2018-02-18T07:36:33.673Z,-1.89
2018-02-18T07:37:39.600Z,-1.81
2018-02-18T07:38:45.122Z,-1.68
2018-02-18T07:39:50.438Z,-1.61
2018-02-18T07:40:55.939Z,-1.51
2018-02-18T07:42:01.359Z,-1.44
2018-02-18T07:43:07.200Z,-1.78
2018-02-18T07:44:12.413Z,-1.77
2018-02-18T07:45:18.142Z,-1.66
2018-02-18T07:46:23.260Z,-1.42
2018-02-18T07:47:28.404Z,-1.27
2018-02-18T07:48:34.735Z,-0.98
2018-02-18T07:49:40.004Z,-1.03
2018-02-18T07:50:45.039Z,-0.97
2018-02-18T07:51:50.063Z,-0.68
2018-02-18T07:52:54.896Z,-0.53
2018-02-18T07:53:59.713Z,-0.23
2018-02-18T07:55:04.493Z,-0.18
2018-02-18T07:56:09.245Z,-0.10
2018-02-18T07:57:14.135Z,0.03
2018-02-18T07:58:19.092Z,0.21
2018-02-18T07:59:23.790Z,0.35
2018-02-18T08:00:28.419Z,0.49
2018-02-18T08:01:33.030Z,0.73
2018-02-18T08:02:37.708Z,0.91
2018-02-18T08:03:42.560Z,1.03
2018-02-18T08:04:47.748Z,0.98
2018-02-18T08:05:52.410Z,1.06
2018-02-18T08:06:57.792Z,1.13
2018-02-18T08:08:02.744Z,1.46
2018-02-18T08:09:07.993Z,1.53
2018-02-18T08:10:12.752Z,1.60
2018-02-18T08:11:18.468Z,1.75
2018-02-18T08:12:23.290Z,1.90
2018-02-18T08:13:28.152Z,2.19
2018-02-18T08:14:32.968Z,2.21
2018-02-18T08:15:37.766Z,2.03
2018-02-18T08:16:42.640Z,2.16
2018-02-18T08:17:47.858Z,2.84
2018-02-18T08:18:52.675Z,3.34
2018-02-18T08:19:57.528Z,3.46
2018-02-18T08:21:02.322Z,3.59
2018-02-18T08:22:07.100Z,3.80
2018-02-18T08:23:11.841Z,3.87
2018-02-18T08:24:16.898Z,3.68
2018-02-18T08:25:21.677Z,3.59
2018-02-18T08:26:26.512Z,3.50
2018-02-18T08:27:31.604Z,3.55
2018-02-18T08:28:36.358Z,3.80
2018-02-18T08:29:41.132Z,3.98
2018-02-18T08:30:46.211Z,4.38
2018-02-18T08:31:51.576Z,4.37
2018-02-18T08:32:56.241Z,4.33
2018-02-18T08:34:01.770Z,4.61
2018-02-18T08:35:06.830Z,4.47
2018-02-18T08:36:11.833Z,4.34
2018-02-18T08:37:17.194Z,4.64
2018-02-18T08:38:22.136Z,4.44
2018-02-18T08:39:27.061Z,4.54
2018-02-18T08:40:31.863Z,4.81
2018-02-18T08:41:36.641Z,5.11
2018-02-18T08:42:41.403Z,4.89
2018-02-18T08:43:46.189Z,5.28
2018-02-18T08:44:51.690Z,5.82
2018-02-18T08:45:56.720Z,6.03
2018-02-18T08:47:01.734Z,6.27
2018-02-18T08:48:06.562Z,5.31
2018-02-18T08:49:11.690Z,5.33
2018-02-18T08:50:16.478Z,5.61
2018-02-18T08:51:21.276Z,5.82
2018-02-18T08:52:26.359Z,6.11
2018-02-18T08:53:31.205Z,6.66
2018-02-18T08:54:37.514Z,6.84
2018-02-18T08:55:42.686Z,6.78
2018-02-18T08:56:47.272Z,6.61
2018-02-18T08:57:51.938Z,6.95
2018-02-18T08:58:56.525Z,6.64
2018-02-18T09:00:01.217Z,6.33
2018-02-18T09:01:05.919Z,6.53
2018-02-18T09:02:10.948Z,6.55
2018-02-18T09:03:15.698Z,7.04
2018-02-18T09:04:20.430Z,7.31
2018-02-18T09:05:25.132Z,7.78
2018-02-18T09:06:30.069Z,7.84
2018-02-18T09:07:34.970Z,7.92
2018-02-18T09:08:40.704Z,8.17
2018-02-18T09:09:45.547Z,8.18
2018-02-18T09:10:51.115Z,8.33
2018-02-18T09:11:55.903Z,8.32
2018-02-18T09:13:00.758Z,8.47
2018-02-18T09:14:05.740Z,8.83
2018-02-18T09:15:11.107Z,9.11
2018-02-18T09:16:16.093Z,9.33
2018-02-18T09:17:21.952Z,9.25
2018-02-18T09:18:26.966Z,9.41
2018-02-18T09:19:31.806Z,9.39
2018-02-18T09:20:36.730Z,9.43
2018-02-18T09:21:41.899Z,8.54
2018-02-18T09:22:46.910Z,8.57
2018-02-18T09:23:52.279Z,8.97
2018-02-18T09:24:57.095Z,9.31
2018-02-18T09:26:02.126Z,9.50
2018-02-18T09:27:06.994Z,9.60
2018-02-18T09:28:12.123Z,9.62
2018-02-18T09:29:16.992Z,9.90
2018-02-18T09:30:21.929Z,10.34
2018-02-18T09:31:26.822Z,10.55
2018-02-18T09:32:31.716Z,10.35
2018-02-18T09:33:37.501Z,10.12
2018-02-18T09:34:42.613Z,9.78
2018-02-18T09:35:47.430Z,8.75
2018-02-18T09:36:52.308Z,8.72
2018-02-18T09:37:57.148Z,9.35
2018-02-18T09:39:01.948Z,8.58
2018-02-18T09:40:06.794Z,9.30
2018-02-18T09:41:11.934Z,9.78
2018-02-18T09:42:16.776Z,10.14
2018-02-18T09:43:21.675Z,10.50
2018-02-18T09:44:26.511Z,10.78
2018-02-18T09:45:31.223Z,11.29
2018-02-18T09:46:35.995Z,11.43
2018-02-18T09:47:41.036Z,11.76
2018-02-18T09:48:45.768Z,10.74
2018-02-18T09:49:50.533Z,10.81
2018-02-18T09:50:55.318Z,10.85
2018-02-18T09:51:59.960Z,11.17
2018-02-18T09:53:04.696Z,10.94
2018-02-18T09:54:10.640Z,11.00
2018-02-18T09:55:15.313Z,11.49
2018-02-18T09:56:20.094Z,11.37
2018-02-18T09:57:24.934Z,11.16
2018-02-18T09:58:29.629Z,11.06
2018-02-18T09:59:34.348Z,10.98
2018-02-18T10:00:39.264Z,10.72
2018-02-18T10:01:43.783Z,11.68
2018-02-18T10:02:48.330Z,12.20
2018-02-18T10:03:52.930Z,11.01
2018-02-18T10:04:57.505Z,9.56
2018-02-18T10:06:02.088Z,9.22
2018-02-18T10:07:06.951Z,9.23
2018-02-18T10:08:11.847Z,8.62
2018-02-18T10:09:16.862Z,8.49
2018-02-18T10:10:21.769Z,8.58
2018-02-18T10:11:26.641Z,8.31
2018-02-18T10:12:31.532Z,8.90
2018-02-18T10:13:36.220Z,8.33
2018-02-18T10:14:40.848Z,7.24
2018-02-18T10:15:45.566Z,7.90
2018-02-18T10:16:50.311Z,8.30
2018-02-18T10:17:55.190Z,8.53
2018-02-18T10:19:00.358Z,8.09
2018-02-18T10:20:05.298Z,6.38
2018-02-18T10:21:10.246Z,5.72
2018-02-18T10:22:15.028Z,5.97
2018-02-18T10:23:20.149Z,6.20
2018-02-18T10:24:24.986Z,7.33
2018-02-18T10:25:30.092Z,6.84
2018-02-18T10:26:35.510Z,7.15
2018-02-18T10:27:40.286Z,6.93
2018-02-18T10:28:45.115Z,7.02
2018-02-18T10:29:50.128Z,6.39
2018-02-18T10:30:55.521Z,5.62
2018-02-18T10:32:00.875Z,5.61
2018-02-18T10:33:05.686Z,6.36
2018-02-18T10:34:10.530Z,6.49
2018-02-18T10:35:15.257Z,6.96
2018-02-18T10:36:20.021Z,6.70
2018-02-18T10:37:24.839Z,6.18
2018-02-18T10:38:30.398Z,6.54
2018-02-18T10:39:35.310Z,6.95
2018-02-18T10:40:40.219Z,6.15
2018-02-18T10:41:45.302Z,6.08
2018-02-18T10:42:50.527Z,6.26
2018-02-18T10:43:55.401Z,6.26
2018-02-18T10:45:00.730Z,5.72
2018-02-18T10:46:05.542Z,5.96
2018-02-18T10:47:10.366Z,5.89
2018-02-18T10:48:15.238Z,6.19
2018-02-18T10:49:19.997Z,7.41
2018-02-18T10:50:24.762Z,7.01
2018-02-18T10:51:29.946Z,6.29
2018-02-18T10:52:34.889Z,6.68
2018-02-18T10:53:39.639Z,7.04
2018-02-18T10:54:44.495Z,6.81
2018-02-18T10:55:49.270Z,6.98
2018-02-18T10:56:55.670Z,6.58
2018-02-18T10:58:01.106Z,7.81
2018-02-18T10:59:05.663Z,8.06
2018-02-18T11:00:11.507Z,8.32
2018-02-18T11:01:16.139Z,7.50
2018-02-18T11:02:20.795Z,6.15
2018-02-18T11:03:25.845Z,6.27
2018-02-18T11:04:31.195Z,6.49
2018-02-18T11:05:35.831Z,7.05
2018-02-18T11:06:40.464Z,6.80
2018-02-18T11:07:45.084Z,6.19
2018-02-18T11:08:49.871Z,5.98
2018-02-18T11:09:54.570Z,5.97
2018-02-18T11:11:01.863Z,6.51
2018-02-18T11:12:06.770Z,6.97
2018-02-18T11:13:11.652Z,7.05
2018-02-18T11:14:17.192Z,6.93
2018-02-18T11:15:22.415Z,6.64
2018-02-18T11:16:27.371Z,7.09
2018-02-18T11:17:32.572Z,7.30
2018-02-18T11:18:37.495Z,6.89
2018-02-18T11:19:42.532Z,7.36
2018-02-18T11:20:47.386Z,8.18
2018-02-18T11:21:52.342Z,7.96
2018-02-18T11:22:57.363Z,7.29
2018-02-18T11:24:02.708Z,7.96
2018-02-18T11:25:07.689Z,9.11
2018-02-18T11:26:12.642Z,7.94
2018-02-18T11:27:17.467Z,8.61
2018-02-18T11:28:22.272Z,9.14
2018-02-18T11:29:27.256Z,9.62
2018-02-18T11:30:32.811Z,9.47
2018-02-18T11:31:37.820Z,8.26
2018-02-18T11:32:42.791Z,8.30
2018-02-18T11:33:47.679Z,8.47
2018-02-18T11:34:52.701Z,9.05
2018-02-18T11:35:57.633Z,8.01
2018-02-18T11:37:02.888Z,7.32
2018-02-18T11:38:07.452Z,7.81
2018-02-18T11:39:12.253Z,7.66
2018-02-18T11:40:17.432Z,6.95
2018-02-18T11:41:22.305Z,7.14
2018-02-18T11:42:27.026Z,6.52
2018-02-18T11:43:32.127Z,6.58
2018-02-18T11:44:36.762Z,7.68
2018-02-18T11:45:41.522Z,8.45
2018-02-18T11:46:46.158Z,8.35
2018-02-18T11:47:50.989Z,9.00
2018-02-18T11:48:55.893Z,9.18
2018-02-18T11:50:00.987Z,9.64
2018-02-18T11:51:06.330Z,10.30
2018-02-18T11:52:11.265Z,8.86
2018-02-18T11:53:16.091Z,9.18
2018-02-18T11:54:20.964Z,9.03
2018-02-18T11:55:25.776Z,9.18
2018-02-18T11:56:30.993Z,9.62
2018-02-18T11:57:35.849Z,8.67
2018-02-18T11:58:41.206Z,7.90
2018-02-18T11:59:46.068Z,7.43
2018-02-18T12:00:52.022Z,7.96
2018-02-18T12:01:57.245Z,8.43
2018-02-18T12:03:02.742Z,8.71
2018-02-18T12:04:07.475Z,9.11
2018-02-18T12:05:12.197Z,9.20
2018-02-18T12:06:17.329Z,8.71
2018-02-18T12:07:22.250Z,8.68
2018-02-18T12:08:26.964Z,7.74
2018-02-18T12:09:31.932Z,6.83
2018-02-18T12:10:37.395Z,6.73
2018-02-18T12:11:43.270Z,7.08
2018-02-18T12:12:48.420Z,7.41
2018-02-18T12:13:53.709Z,8.14
2018-02-18T12:14:59.259Z,8.03
2018-02-18T12:16:04.101Z,7.12
2018-02-18T12:17:08.950Z,7.66
2018-02-18T12:18:14.056Z,7.19
2018-02-18T12:19:18.949Z,6.84
2018-02-18T12:20:23.977Z,7.08
2018-02-18T12:21:28.934Z,7.23
2018-02-18T12:22:33.678Z,8.05
2018-02-18T12:23:38.535Z,7.77
2018-02-18T12:24:43.292Z,7.77
2018-02-18T12:25:48.064Z,8.23
2018-02-18T12:26:52.814Z,8.24
2018-02-18T12:27:57.889Z,7.97
2018-02-18T12:29:03.491Z,8.13
2018-02-18T12:30:08.768Z,8.47
2018-02-18T12:31:13.569Z,7.83
2018-02-18T12:32:18.252Z,8.07
2018-02-18T12:33:23.047Z,8.61
2018-02-18T12:34:28.239Z,9.67
2018-02-18T12:35:32.943Z,9.99
2018-02-18T12:36:37.664Z,9.07
2018-02-18T12:37:42.423Z,8.20
2018-02-18T12:38:47.195Z,8.16
2018-02-18T12:39:52.744Z,8.53
2018-02-18T12:40:58.874Z,7.94
2018-02-18T12:42:04.515Z,7.79
2018-02-18T12:43:09.421Z,8.09
2018-02-18T12:44:14.109Z,8.29
2018-02-18T12:45:18.874Z,8.67
2018-02-18T12:46:23.733Z,8.52
2018-02-18T12:47:28.752Z,7.61
2018-02-18T12:48:33.369Z,7.55
2018-02-18T12:49:38.257Z,8.27
2018-02-18T12:50:42.975Z,8.68
2018-02-18T12:51:47.797Z,8.95
2018-02-18T12:52:52.618Z,9.26
2018-02-18T12:53:57.664Z,9.29
2018-02-18T12:55:02.496Z,8.91
2018-02-18T12:56:07.296Z,8.14
2018-02-18T12:57:12.072Z,8.39
2018-02-18T12:58:17.005Z,8.98
2018-02-18T12:59:21.730Z,9.57
2018-02-18T13:00:29.943Z,9.71
2018-02-18T13:01:37.104Z,10.55
2018-02-18T13:02:41.793Z,9.68
2018-02-18T13:03:46.638Z,8.88
2018-02-18T13:04:51.984Z,9.15
2018-02-18T13:05:58.165Z,9.25
2018-02-18T13:07:03.273Z,9.31
2018-02-18T13:08:09.380Z,10.02
2018-02-18T13:09:14.146Z,9.54
2018-02-18T13:10:18.971Z,8.78
2018-02-18T13:11:23.621Z,9.11
2018-02-18T13:12:29.097Z,8.89
2018-02-18T13:13:34.876Z,9.51
2018-02-18T13:14:40.417Z,8.69
2018-02-18T13:15:45.361Z,8.14
2018-02-18T13:16:51.181Z,7.83
2018-02-18T13:17:55.971Z,7.57
2018-02-18T13:19:01.719Z,7.92
2018-02-18T13:20:07.593Z,8.41
2018-02-18T13:21:12.791Z,7.82
2018-02-18T13:22:17.960Z,7.14
2018-02-18T13:23:23.807Z,7.30
2018-02-18T13:24:29.723Z,7.73
2018-02-18T13:25:35.273Z,8.21
2018-02-18T13:26:43.719Z,8.30
2018-02-18T13:27:48.599Z,8.49
2018-02-18T13:28:55.616Z,8.20
2018-02-18T13:30:01.640Z,7.17
2018-02-18T13:31:07.510Z,7.25
2018-02-18T13:32:13.185Z,7.36
2018-02-18T13:33:20.798Z,7.74
2018-02-18T13:34:27.175Z,7.95
2018-02-18T13:35:32.944Z,7.61
2018-02-18T13:36:38.683Z,8.01
2018-02-18T13:37:44.393Z,8.72
2018-02-18T13:38:49.965Z,9.50
2018-02-18T13:39:55.395Z,9.54
2018-02-18T13:41:01.791Z,9.87
2018-02-18T13:42:06.671Z,8.22
2018-02-18T13:43:12.690Z,7.50
2018-02-18T13:44:18.165Z,7.19
2018-02-18T13:45:23.960Z,7.01
2018-02-18T13:46:29.732Z,6.70
2018-02-18T13:47:34.639Z,7.36
2018-02-18T13:48:40.096Z,7.44
2018-02-18T13:49:45.551Z,7.37
2018-02-18T13:50:50.402Z,7.55
2018-02-18T13:51:56.414Z,7.83
2018-02-18T13:53:01.993Z,7.98
2018-02-18T13:54:07.762Z,7.95
2018-02-18T13:55:13.213Z,7.44
2018-02-18T13:56:18.569Z,7.81
2018-02-18T13:57:24.165Z,8.49
2018-02-18T13:58:29.946Z,8.17
2018-02-18T13:59:35.418Z,7.41
2018-02-18T14:00:40.939Z,6.85
2018-02-18T14:01:46.386Z,7.33
2018-02-18T14:02:52.397Z,7.31
2018-02-18T14:03:59.171Z,7.08
2018-02-18T14:05:05.350Z,7.27
2018-02-18T14:06:11.071Z,7.67
2018-02-18T14:07:16.779Z,7.96
2018-02-18T14:08:22.473Z,7.36
2018-02-18T14:09:28.133Z,7.33
2018-02-18T14:10:33.717Z,6.77
2018-02-18T14:11:39.085Z,6.90
2018-02-18T14:12:45.140Z,6.53
2018-02-18T14:13:50.245Z,6.50
2018-02-18T14:14:56.050Z,6.36
2018-02-18T14:16:01.677Z,6.83
2018-02-18T14:17:07.409Z,7.25
2018-02-18T14:18:13.931Z,7.40
2018-02-18T14:19:19.662Z,7.44
2018-02-18T14:20:24.549Z,7.83
2018-02-18T14:21:30.155Z,8.36
2018-02-18T14:22:35.705Z,8.92
2018-02-18T14:23:41.506Z,9.00
2018-02-18T14:24:47.149Z,9.24
2018-02-18T14:25:52.787Z,8.87
2018-02-18T14:26:58.464Z,8.13
2018-02-18T14:28:04.280Z,7.89
2018-02-18T14:29:09.151Z,7.78
2018-02-18T14:30:14.268Z,7.66
2018-02-18T14:31:19.691Z,7.12
2018-02-18T14:32:25.800Z,7.14
2018-02-18T14:33:32.600Z,7.09
2018-02-18T14:34:38.089Z,6.77
2018-02-18T14:35:43.414Z,6.70
2018-02-18T14:36:49.857Z,6.78
2018-02-18T14:37:56.154Z,6.95
2018-02-18T14:39:01.773Z,7.26
2018-02-18T14:40:08.018Z,7.27
2018-02-18T14:41:17.702Z,7.51
2018-02-18T14:42:28.661Z,6.87
2018-02-18T14:43:39.405Z,6.70
2018-02-18T14:46:51.621Z,6.63
2018-02-18T14:50:04.285Z,7.39
2018-02-18T14:53:17.284Z,7.09
2018-02-18T14:54:28.170Z,6.22
2018-02-18T14:55:37.168Z,6.30
2018-02-18T14:56:42.234Z,6.03
2018-02-18T14:57:46.843Z,6.24
2018-02-18T14:58:51.377Z,6.36
2018-02-18T14:59:55.891Z,6.56
2018-02-18T15:01:00.751Z,6.47
2018-02-18T15:02:05.306Z,6.11
2018-02-18T15:03:09.897Z,6.24
2018-02-18T15:04:14.436Z,6.65
2018-02-18T15:05:19.013Z,7.17
2018-02-18T15:06:23.570Z,7.17
2018-02-18T15:07:28.633Z,6.66
2018-02-18T15:08:33.324Z,6.58
2018-02-18T15:09:38.115Z,6.62
2018-02-18T15:10:42.843Z,6.89
2018-02-18T15:11:47.512Z,6.67
2018-02-18T15:12:52.172Z,6.92
2018-02-18T15:13:57.337Z,6.62
2018-02-18T15:15:02.004Z,6.09
2018-02-18T15:16:06.716Z,5.98
2018-02-18T15:17:11.289Z,6.49
2018-02-18T15:18:15.845Z,6.54
2018-02-18T15:19:20.471Z,6.42
2018-02-18T15:20:25.812Z,6.80
2018-02-18T15:21:30.568Z,6.79
2018-02-18T15:22:35.299Z,6.87
2018-02-18T15:23:39.804Z,6.96
2018-02-18T15:24:44.514Z,6.50
2018-02-18T15:25:49.224Z,6.45
2018-02-18T15:26:54.316Z,6.45
2018-02-18T15:27:59.127Z,6.11
2018-02-18T15:29:03.941Z,5.88
2018-02-18T15:30:08.597Z,5.83
2018-02-18T15:31:13.283Z,5.59
2018-02-18T15:32:17.914Z,5.44